Time;durP1;ratioP1;P1;durP2;ratioP2;P2;SDS_P1;SDS_P2;PMS_P1;PMS_P2;Temp;Humidity;BMP_temperature;BMP_pressure;BME280_temperature;BME280_humidity;BME280_pressure;Samples;Min_cycle;Max_cycle;Signal;HPM_P1;HPM_P2
2024/02/14 00:02:14;;;;;;;2.25;1.60;;;;;;;9.10;77.28;99276.81;5033070;28;20030;-26
2024/02/14 00:04:40;;;;;;;1.90;1.50;;;;;;;9.27;76.79;99277.19;5033230;28;20581;-26
2024/02/14 00:07:05;;;;;;;1.77;1.48;;;;;;;9.05;77.74;99281.94;5032962;28;20036;-26
2024/02/14 00:09:31;;;;;;;2.03;1.48;;;;;;;9.15;76.94;99291.09;5032806;28;20020;-26
2024/02/14 00:11:56;;;;;;;1.52;1.40;;;;;;;9.17;76.80;99277.63;5032587;28;20110;-26
2024/02/14 00:14:22;;;;;;;1.95;1.40;;;;;;;9.02;77.73;99280.47;5032672;28;20021;-26
2024/02/14 00:16:47;;;;;;;1.50;1.30;;;;;;;9.19;76.91;99280.88;5032744;28;20026;-26
2024/02/14 00:19:13;;;;;;;1.40;1.20;;;;;;;9.03;76.93;99271.50;5019297;28;20060;-26
2024/02/14 00:21:39;;;;;;;3.00;1.40;;;;;;;9.32;75.86;99272.91;5032806;28;20466;-26
2024/02/14 00:24:05;;;;;;;1.40;1.30;;;;;;;9.23;76.69;99289.25;5032887;28;20025;-26
2024/02/14 00:26:31;;;;;;;1.92;1.38;;;;;;;9.55;74.91;99291.03;5032677;28;20018;-26
2024/02/14 00:28:56;;;;;;;2.42;1.52;;;;;;;9.19;76.07;99288.84;5032868;28;20029;-26
2024/02/14 00:31:22;;;;;;;1.77;1.40;;;;;;;9.27;76.46;99291.31;5032812;28;20532;-26
2024/02/14 00:33:47;;;;;;;1.55;1.20;;;;;;;9.33;75.84;99287.03;5032677;28;20025;-26
2024/02/14 00:36:13;;;;;;;1.67;1.23;;;;;;;9.16;75.87;99295.41;5032763;28;20021;-26
2024/02/14 00:38:38;;;;;;;1.35;1.10;;;;;;;9.29;75.42;99293.75;5032282;28;20029;-26
2024/02/14 00:41:03;;;;;;;1.83;1.20;;;;;;;9.11;76.06;99299.69;5032074;28;20473;-26
2024/02/14 00:43:29;;;;;;;1.42;1.30;;;;;;;9.23;75.15;99300.69;5032536;28;20025;-26
2024/02/14 00:45:56;;;;;;;2.05;1.30;;;;;;;9.28;75.44;99281.50;5032295;28;20450;-26
2024/02/14 00:48:22;;;;;;;1.55;1.38;;;;;;;9.26;75.01;99288.84;5032333;28;20025;-26
2024/02/14 00:50:47;;;;;;;2.67;1.58;;;;;;;9.43;74.70;99297.22;5031772;28;20025;-26
2024/02/14 00:53:13;;;;;;;1.25;1.13;;;;;;;9.75;73.03;99295.50;5032234;28;20113;-26
2024/02/14 00:55:39;;;;;;;2.38;1.48;;;;;;;9.46;74.50;99294.13;5032191;28;20021;-25
2024/02/14 00:58:04;;;;;;;1.42;1.27;;;;;;;9.28;75.06;99295.59;5032023;28;20034;-25
2024/02/14 01:00:31;;;;;;;1.50;1.25;;;;;;;9.45;74.62;99298.63;5032369;28;20104;-26
2024/02/14 01:02:57;;;;;;;1.52;1.13;;;;;;;9.47;74.24;99304.56;5031958;28;20385;-26
2024/02/14 01:05:23;;;;;;;1.67;1.35;;;;;;;9.45;74.89;99297.81;5032364;28;20112;-26
2024/02/14 01:07:48;;;;;;;1.65;1.55;;;;;;;9.27;75.06;99291.31;5032521;28;20108;-26
2024/02/14 01:10:14;;;;;;;2.17;1.40;;;;;;;9.18;75.84;99303.16;5032579;28;20100;-25
2024/02/14 01:12:40;;;;;;;1.60;1.33;;;;;;;9.04;75.94;99288.25;5032128;28;20053;-26
2024/02/14 01:15:06;;;;;;;1.90;1.33;;;;;;;9.29;75.62;99305.19;5032296;28;20021;-26
2024/02/14 01:17:31;;;;;;;1.63;1.35;;;;;;;9.10;76.11;99301.53;5032240;28;20053;-26
2024/02/14 01:19:58;;;;;;;2.30;1.60;;;;;;;9.20;75.88;99309.09;5020869;28;20022;-25
2024/02/14 01:22:23;;;;;;;1.58;1.30;;;;;;;9.28;75.50;99287.63;5030442;28;20074;-26
2024/02/14 01:24:49;;;;;;;1.85;1.30;;;;;;;9.32;75.29;99307.44;5032061;28;20057;-27
2024/02/14 01:27:15;;;;;;;1.60;1.33;;;;;;;9.01;75.90;99305.41;5031657;28;20120;-25
2024/02/14 01:29:41;;;;;;;2.30;1.52;;;;;;;9.14;75.48;99308.06;5031971;28;20025;-26
2024/02/14 01:32:06;;;;;;;1.20;1.10;;;;;;;9.19;75.16;99302.97;5031889;28;20381;-26
2024/02/14 01:34:32;;;;;;;1.63;1.33;;;;;;;9.16;75.02;99310.50;5031613;28;20221;-26
2024/02/14 01:36:57;;;;;;;1.33;1.23;;;;;;;9.11;74.88;99303.16;5031913;28;20038;-26
2024/02/14 01:39:23;;;;;;;1.83;1.40;;;;;;;9.10;75.39;99303.34;5031595;28;20171;-26
2024/02/14 01:41:48;;;;;;;1.98;1.50;;;;;;;9.20;74.84;99309.09;5031772;28;20029;-26
2024/02/14 01:44:15;;;;;;;1.83;1.40;;;;;;;9.30;74.46;99298.84;5031618;28;20476;-26
2024/02/14 01:46:42;;;;;;;1.52;1.40;;;;;;;9.28;74.48;99303.56;5031635;28;20104;-26
2024/02/14 01:49:09;;;;;;;2.05;1.60;;;;;;;9.34;73.78;99293.94;5031621;28;20025;-25
2024/02/14 01:51:36;;;;;;;2.30;1.52;;;;;;;9.13;74.11;99306.41;5024967;28;20025;-26
2024/02/14 01:54:02;;;;;;;1.80;1.60;;;;;;;9.11;74.55;99299.69;5031509;28;20029;-26
2024/02/14 01:56:29;;;;;;;2.20;1.40;;;;;;;9.16;74.59;99315.81;5023944;28;20030;-26
2024/02/14 01:58:56;;;;;;;2.25;1.30;;;;;;;9.04;74.82;99310.28;5025947;28;20029;-26
2024/02/14 02:01:23;;;;;;;1.35;1.20;;;;;;;9.05;74.34;99317.25;5031627;28;20041;-26
2024/02/14 02:03:48;;;;;;;1.58;1.48;;;;;;;9.12;74.08;99320.72;5031482;28;20027;-26
2024/02/14 02:06:15;;;;;;;2.50;1.50;;;;;;;9.25;73.07;99311.91;5031532;28;19913;-26
2024/02/14 02:08:43;;;;;;;2.08;1.30;;;;;;;9.08;73.37;99326.63;5031250;28;20483;-26
2024/02/14 02:11:09;;;;;;;2.83;1.67;;;;;;;9.09;72.50;99315.00;5031236;28;20488;-26
2024/02/14 02:13:34;;;;;;;2.05;1.40;;;;;;;9.03;74.37;99319.28;5031249;28;20025;-26
2024/02/14 02:16:04;;;;;;;1.58;1.48;;;;;;;9.00;73.86;99311.72;5031351;28;20101;-26
2024/02/14 02:18:30;;;;;;;1.95;1.58;;;;;;;9.25;71.98;99327.03;5030991;28;20064;-26
2024/02/14 02:20:56;;;;;;;2.10;1.73;;;;;;;9.17;71.48;99322.75;5031096;28;20033;-26
2024/02/14 02:23:21;;;;;;;2.35;1.67;;;;;;;9.07;71.54;99332.97;5031128;28;20028;-25
2024/02/14 02:25:47;;;;;;;2.17;1.70;;;;;;;9.03;71.75;99342.38;5031060;28;20026;-26
2024/02/14 02:28:13;;;;;;;1.98;1.73;;;;;;;9.11;71.46;99340.31;5030762;28;20429;-25
2024/02/14 02:30:38;;;;;;;2.03;1.70;;;;;;;9.27;71.32;99338.28;5012315;28;20037;-27
2024/02/14 02:33:04;;;;;;;2.47;1.83;;;;;;;9.07;71.77;99344.41;5011077;28;20034;-26
2024/02/14 02:35:30;;;;;;;2.33;1.80;;;;;;;8.97;72.45;99341.34;5011178;28;20558;-25
2024/02/14 02:37:56;;;;;;;2.67;1.75;;;;;;;9.27;72.87;99344.41;5011172;28;20196;-26
2024/02/14 02:40:23;;;;;;;2.95;1.65;;;;;;;8.92;74.56;99343.78;5011311;28;20030;-26
2024/02/14 02:42:50;;;;;;;2.67;1.90;;;;;;;9.08;74.83;99354.00;5011023;28;20030;-26
2024/02/14 02:45:15;;;;;;;2.20;2.00;;;;;;;9.33;73.46;99359.53;5011165;28;20500;-25
2024/02/14 02:47:41;;;;;;;2.30;1.80;;;;;;;8.98;74.81;99353.56;5011191;28;20033;-25
2024/02/14 02:50:07;;;;;;;2.28;1.83;;;;;;;8.98;76.10;99356.22;5021740;28;20520;-26
2024/02/14 02:52:33;;;;;;;4.00;1.90;;;;;;;8.94;75.52;99358.47;5031224;28;20029;-26
2024/02/14 02:55:00;;;;;;;2.38;1.80;;;;;;;8.92;75.12;99357.84;5030886;28;20025;-26
2024/02/14 02:57:26;;;;;;;2.45;1.75;;;;;;;9.03;74.93;99358.28;5030891;28;20029;-25
2024/02/14 02:59:52;;;;;;;2.50;2.00;;;;;;;8.96;74.85;99358.25;5030717;28;20480;-26
2024/02/14 03:02:18;;;;;;;2.70;2.00;;;;;;;9.16;73.94;99364.41;5030738;28;20029;-26
2024/02/14 03:04:45;;;;;;;2.95;2.08;;;;;;;8.79;75.73;99368.44;5033996;28;20033;-27
2024/02/14 03:07:10;;;;;;;4.07;2.30;;;;;;;8.82;73.56;99376.00;5034247;28;20029;-26
2024/02/14 03:09:36;;;;;;;5.50;2.20;;;;;;;8.80;73.73;99373.56;5034871;28;20036;-26
2024/02/14 03:12:05;;;;;;;2.95;2.10;;;;;;;8.92;73.50;99384.38;5034350;28;20057;-25
2024/02/14 03:14:32;;;;;;;2.85;2.40;;;;;;;9.05;73.01;99377.47;5034798;28;20021;-26
2024/02/14 03:17:01;;;;;;;2.95;2.38;;;;;;;9.16;71.71;99384.84;5034398;28;20074;-26
2024/02/14 03:19:27;;;;;;;2.60;2.13;;;;;;;9.11;72.56;99384.63;5034319;28;20033;-26
2024/02/14 03:21:53;;;;;;;3.60;2.47;;;;;;;9.16;73.36;99392.81;5034322;28;20384;-26
2024/02/14 03:24:19;;;;;;;3.72;2.55;;;;;;;9.19;72.87;99390.56;5034415;28;20101;-26
2024/02/14 03:26:44;;;;;;;3.78;2.50;;;;;;;9.12;73.23;99391.56;5034520;28;20071;-25
2024/02/14 03:29:10;;;;;;;3.38;2.33;;;;;;;9.23;71.77;99379.53;5034354;28;20025;-25
2024/02/14 03:31:36;;;;;;;3.20;2.60;;;;;;;9.42;72.05;99399.16;5033940;28;20026;-25
2024/02/14 03:34:01;;;;;;;3.67;2.70;;;;;;;9.15;73.90;99410.56;5034005;28;20029;-25
2024/02/14 03:36:30;;;;;;;3.65;2.88;;;;;;;9.01;74.30;99403.59;5033723;28;20412;-25
2024/02/14 03:38:58;;;;;;;3.65;2.83;;;;;;;9.19;74.03;99408.31;5033650;28;20077;-25
2024/02/14 03:41:24;;;;;;;4.03;2.97;;;;;;;9.10;73.37;99413.03;5033889;28;20097;-25
2024/02/14 03:43:52;;;;;;;3.53;2.70;;;;;;;9.25;73.46;99410.16;5033920;28;20100;-25
2024/02/14 03:46:21;;;;;;;3.65;2.90;;;;;;;8.99;74.07;99406.47;5034023;28;20026;-26
2024/02/14 03:48:47;;;;;;;3.72;2.80;;;;;;;9.07;73.37;99399.34;5033785;28;20059;-26
2024/02/14 03:51:13;;;;;;;4.45;2.90;;;;;;;8.87;74.23;99418.69;5033626;28;20029;-26
2024/02/14 03:53:38;;;;;;;3.47;2.80;;;;;;;8.94;73.64;99416.03;5033543;28;20370;-26
2024/02/14 03:56:04;;;;;;;4.82;3.03;;;;;;;8.92;74.17;99413.59;5033787;28;20048;-26
2024/02/14 03:58:30;;;;;;;3.67;2.90;;;;;;;9.37;72.85;99428.97;5033614;28;20100;-33
2024/02/14 04:00:55;;;;;;;4.28;3.08;;;;;;;9.18;73.01;99428.75;5033766;28;20032;-25
2024/02/14 04:03:20;;;;;;;4.35;3.10;;;;;;;9.15;73.14;99425.69;5033588;28;20025;-25
2024/02/14 04:05:47;;;;;;;4.18;3.10;;;;;;;8.99;74.35;99432.19;5033706;28;20026;-25
2024/02/14 04:08:12;;;;;;;4.13;3.38;;;;;;;8.73;74.49;99424.97;5034103;28;20013;-26
2024/02/14 04:10:38;;;;;;;4.93;3.40;;;;;;;8.81;74.43;99427.44;5033498;28;20048;-25
2024/02/14 04:13:04;;;;;;;4.72;3.63;;;;;;;8.92;73.52;99432.16;5033626;28;20021;-25
2024/02/14 04:15:31;;;;;;;6.10;3.50;;;;;;;9.05;73.40;99439.34;5032654;28;20029;-25
2024/02/14 04:17:56;;;;;;;4.75;3.45;;;;;;;8.89;74.03;99442.34;5035675;28;20052;-25
2024/02/14 04:20:21;;;;;;;5.70;3.80;;;;;;;8.88;75.11;99446.03;5044329;28;20018;-26
2024/02/14 04:22:47;;;;;;;5.55;3.60;;;;;;;8.58;75.52;99444.47;5044171;28;20021;-26
2024/02/14 04:25:12;;;;;;;5.43;3.50;;;;;;;8.53;75.09;99441.63;5043527;28;20026;-25
2024/02/14 04:27:37;;;;;;;5.32;3.78;;;;;;;8.76;74.10;99456.41;5038553;28;20009;-25
2024/02/14 04:30:03;;;;;;;5.05;3.67;;;;;;;8.53;74.92;99444.28;5034096;28;20485;-26
2024/02/14 04:32:29;;;;;;;7.68;4.30;;;;;;;8.72;74.89;99455.16;5031445;28;20029;-26
2024/02/14 04:34:54;;;;;;;5.43;4.28;;;;;;;8.72;74.78;99457.81;5044500;28;20111;-26
2024/02/14 04:37:20;;;;;;;5.47;3.92;;;;;;;8.88;73.92;99452.16;5047149;28;20368;-26
2024/02/14 04:39:46;;;;;;;5.00;3.70;;;;;;;8.88;73.17;99457.47;5046922;28;20071;-26
2024/02/14 04:42:11;;;;;;;6.22;3.80;;;;;;;8.60;73.93;99461.03;5049907;28;20017;-26
2024/02/14 04:44:36;;;;;;;9.90;6.80;;;;;;;8.73;74.06;99462.91;5032593;28;20052;-26
2024/02/14 04:47:02;;;;;;;6.22;4.03;;;;;;;8.83;73.31;99470.50;5032956;28;20127;-26
2024/02/14 04:49:29;;;;;;;5.38;3.50;;;;;;;8.44;74.51;99456.06;5032535;28;20032;-25
2024/02/14 04:51:55;;;;;;;5.22;3.60;;;;;;;8.97;72.16;99466.06;5032562;28;20026;-26
2024/02/14 04:54:20;;;;;;;5.65;3.88;;;;;;;9.42;70.36;99465.53;5044840;28;20024;-26
2024/02/14 04:56:46;;;;;;;5.28;3.85;;;;;;;9.66;68.73;99469.47;5052237;28;20020;-26
2024/02/14 04:59:11;;;;;;;6.38;3.80;;;;;;;9.61;68.67;99467.41;5037427;28;20025;-26
2024/02/14 05:01:37;;;;;;;5.13;3.58;;;;;;;9.55;68.37;99465.56;5031492;28;20408;-26
2024/02/14 05:04:04;;;;;;;5.18;3.72;;;;;;;9.73;68.02;99471.09;5031692;28;20418;-28
2024/02/14 05:06:29;;;;;;;5.50;3.55;;;;;;;9.70;67.93;99471.50;5031911;28;20096;-27
2024/02/14 05:08:55;;;;;;;5.18;3.80;;;;;;;9.52;67.38;99461.47;5031342;28;20569;-27
2024/02/14 05:11:20;;;;;;;5.55;3.50;;;;;;;9.60;67.73;99476.41;5031389;28;20033;-27
2024/02/14 05:13:46;;;;;;;5.22;3.70;;;;;;;9.56;68.08;99489.28;5031589;28;20057;-26
2024/02/14 05:16:12;;;;;;;5.50;3.78;;;;;;;9.13;69.59;99478.16;5031914;28;20021;-27
2024/02/14 05:18:38;;;;;;;7.70;4.55;;;;;;;9.56;70.13;99485.81;5041234;28;20551;-26
2024/02/14 05:21:07;;;;;;;6.78;4.32;;;;;;;9.74;69.85;99490.50;5032542;28;20029;-26
2024/02/14 05:23:36;;;;;;;6.38;4.07;;;;;;;9.41;68.54;99490.50;5031884;28;20021;-27
2024/02/14 05:26:03;;;;;;;7.35;4.20;;;;;;;9.20;68.86;99490.44;5032185;28;20029;-27
2024/02/14 05:28:28;;;;;;;5.80;3.97;;;;;;;9.61;68.29;99495.81;5032020;28;20028;-26
2024/02/14 05:30:54;;;;;;;8.18;4.47;;;;;;;9.77;69.52;99500.75;5048764;28;20033;-27
2024/02/14 05:33:22;;;;;;;5.05;3.90;;;;;;;9.52;67.68;99500.47;5051944;28;20025;-26
2024/02/14 05:35:50;;;;;;;6.05;3.97;;;;;;;9.40;68.48;99510.91;5052725;28;20017;-27
2024/02/14 05:38:19;;;;;;;6.93;4.90;;;;;;;9.67;68.81;99509.13;5052419;28;20108;-27
2024/02/14 05:40:45;;;;;;;7.15;4.70;;;;;;;9.66;66.98;99496.84;5052171;28;20035;-27
2024/02/14 05:43:10;;;;;;;7.10;4.63;;;;;;;9.46;66.78;99502.13;5051393;28;20017;-26
2024/02/14 05:45:36;;;;;;;7.38;4.82;;;;;;;9.38;68.05;99510.28;5051110;28;20100;-28
2024/02/14 05:48:01;;;;;;;7.43;4.88;;;;;;;10.09;65.32;99516.88;5051572;28;20454;-27
2024/02/14 05:50:27;;;;;;;6.53;4.00;;;;;;;9.19;67.50;99506.56;5037561;28;20033;-26
2024/02/14 05:52:53;;;;;;;6.70;4.80;;;;;;;9.37;67.80;99529.91;5030826;28;20120;-26
2024/02/14 05:55:18;;;;;;;7.80;5.00;;;;;;;9.41;67.51;99527.66;5030603;28;20539;-27
2024/02/14 05:57:44;;;;;;;7.72;4.93;;;;;;;9.54;67.01;99514.41;5033675;28;20112;-27
2024/02/14 06:00:10;;;;;;;7.25;4.45;;;;;;;9.72;65.45;99532.41;5041565;28;20045;-27
2024/02/14 06:02:36;;;;;;;6.45;4.38;;;;;;;9.26;66.86;99547.22;5045035;28;20515;-27
2024/02/14 06:05:01;;;;;;;6.30;4.20;;;;;;;9.36;66.94;99539.69;5051828;28;20021;-29
2024/02/14 06:07:28;;;;;;;5.72;4.43;;;;;;;9.71;65.92;99552.00;5051566;28;20427;-26
2024/02/14 06:09:53;;;;;;;5.82;3.95;;;;;;;9.68;64.77;99552.44;5041793;28;20017;-27
2024/02/14 06:12:18;;;;;;;5.70;4.22;;;;;;;9.43;65.98;99560.97;5039683;28;20021;-27
2024/02/14 06:14:44;;;;;;;5.85;3.70;;;;;;;9.19;66.38;99555.19;5038093;28;20140;-26
2024/02/14 06:17:09;;;;;;;5.82;3.95;;;;;;;9.79;65.40;99559.81;5037064;28;20037;-26
2024/02/14 06:19:36;;;;;;;5.18;3.90;;;;;;;9.80;64.00;99540.19;5035424;28;20057;-27
2024/02/14 06:22:01;;;;;;;5.13;3.80;;;;;;;9.91;64.05;99558.19;5031744;28;20377;-27
2024/02/14 06:24:26;;;;;;;5.65;4.22;;;;;;;9.78;64.22;99561.63;5031971;28;20033;-27
2024/02/14 06:26:52;;;;;;;5.10;3.92;;;;;;;9.78;65.09;99569.59;5036797;28;20037;-28
2024/02/14 06:29:17;;;;;;;5.80;4.18;;;;;;;10.04;63.77;99575.19;5041183;28;20013;-27
2024/02/14 06:31:42;;;;;;;7.22;4.40;;;;;;;9.85;63.78;99566.16;5042538;28;20752;-26
2024/02/14 06:34:08;;;;;;;6.70;3.97;;;;;;;9.46;64.84;99578.34;5041395;28;20470;-28
2024/02/14 06:36:33;;;;;;;5.85;4.18;;;;;;;9.66;65.13;99578.41;5040850;28;20492;-27
2024/02/14 06:38:59;;;;;;;5.68;4.25;;;;;;;10.27;63.28;99588.88;5041563;28;20021;-27
2024/02/14 06:41:24;;;;;;;5.43;4.03;;;;;;;10.07;63.40;99569.44;5042730;28;20025;-27
2024/02/14 06:43:50;;;;;;;6.82;3.70;;;;;;;9.78;64.15;99580.22;5041519;28;20028;-26
2024/02/14 06:46:15;;;;;;;6.80;4.18;;;;;;;9.67;64.98;99580.84;5038700;28;20025;-26
2024/02/14 06:48:40;;;;;;;7.60;4.32;;;;;;;10.14;63.40;99589.69;5040230;28;20024;-28
2024/02/14 06:51:09;;;;;;;6.55;4.22;;;;;;;9.97;63.59;99591.91;5037662;28;20512;-27
2024/02/14 06:53:35;;;;;;;5.93;4.15;;;;;;;9.68;64.47;99584.31;5040540;28;20108;-27
2024/02/14 06:56:00;;;;;;;5.45;3.92;;;;;;;9.47;65.32;99595.91;5031088;28;20026;-27
2024/02/14 06:58:26;;;;;;;5.45;4.25;;;;;;;10.14;63.86;99604.81;5031035;28;20029;-27
2024/02/14 07:00:52;;;;;;;7.30;5.30;;;;;;;10.37;62.55;99607.91;5031118;28;20030;-26
2024/02/14 07:03:17;;;;;;;6.72;4.50;;;;;;;9.83;63.48;99611.53;5031508;28;20017;-26
2024/02/14 07:05:43;;;;;;;5.82;4.00;;;;;;;9.65;63.95;99613.94;5031182;28;20022;-27
2024/02/14 07:08:09;;;;;;;5.50;4.20;;;;;;;9.81;63.86;99618.91;5031349;28;20551;-27
2024/02/14 07:10:34;;;;;;;7.13;4.00;;;;;;;10.39;62.83;99617.53;5031634;28;20048;-29
2024/02/14 07:12:59;;;;;;;6.90;4.45;;;;;;;9.78;64.16;99616.63;5031712;28;20079;-26
2024/02/14 07:15:28;;;;;;;6.47;4.18;;;;;;;9.69;64.03;99617.84;5027118;28;20029;-39
2024/02/14 07:17:58;;;;;;;5.95;4.45;;;;;;;9.86;64.57;99623.59;5011667;28;20050;-40
2024/02/14 07:20:26;;;;;;;8.13;4.13;;;;;;;10.32;62.82;99622.88;5010662;28;20121;-41
2024/02/14 07:22:53;;;;;;;8.25;4.90;;;;;;;9.87;63.99;99636.69;5010192;28;20477;-41
2024/02/14 07:25:19;;;;;;;8.55;4.90;;;;;;;9.46;66.00;99628.78;5010134;28;20118;-41
2024/02/14 07:27:45;;;;;;;7.07;4.90;;;;;;;9.72;64.49;99644.00;5010910;28;20038;-41
2024/02/14 07:30:12;;;;;;;7.32;5.20;;;;;;;10.07;63.91;99643.88;5008079;28;20036;-40
2024/02/14 07:32:38;;;;;;;7.93;5.40;;;;;;;9.72;64.40;99641.34;5009367;28;20456;-41
2024/02/14 07:35:04;;;;;;;9.43;5.78;;;;;;;9.86;64.29;99650.16;5009271;28;20018;-40
2024/02/14 07:37:30;;;;;;;7.25;5.15;;;;;;;9.94;63.98;99657.97;5009235;28;20536;-41
2024/02/14 07:39:56;;;;;;;8.95;5.13;;;;;;;10.01;64.52;99655.31;5009201;28;20061;-41
2024/02/14 07:42:21;;;;;;;10.50;5.43;;;;;;;10.40;63.37;99659.91;5009621;28;20501;-37
2024/02/14 07:44:47;;;;;;;8.52;5.28;;;;;;;9.79;64.47;99661.63;5011430;28;20037;-43
2024/02/14 07:47:12;;;;;;;8.00;5.28;;;;;;;9.72;64.18;99659.97;5011141;28;20457;-40
2024/02/14 07:49:39;;;;;;;7.68;5.20;;;;;;;9.81;64.22;99665.94;5017491;28;20030;-42
2024/02/14 07:52:05;;;;;;;7.70;5.03;;;;;;;9.89;64.08;99665.72;5034007;28;20515;-40
2024/02/14 07:54:30;;;;;;;7.55;4.93;;;;;;;9.66;64.64;99669.53;5034351;28;20096;-41
2024/02/14 07:56:55;;;;;;;7.60;5.47;;;;;;;9.46;65.68;99671.28;5034158;28;20386;-41
2024/02/14 07:59:21;;;;;;;7.65;5.00;;;;;;;9.57;64.46;99671.53;5034513;28;20425;-27
2024/02/14 08:01:46;;;;;;;7.63;5.00;;;;;;;9.63;65.19;99675.25;5034023;28;20095;-27
2024/02/14 08:04:11;;;;;;;7.22;4.85;;;;;;;10.06;62.61;99688.25;5034438;28;20087;-29
2024/02/14 08:06:37;;;;;;;7.65;4.93;;;;;;;10.08;62.63;99674.78;5034013;28;20078;-32
2024/02/14 08:09:06;;;;;;;7.07;4.97;;;;;;;10.20;62.24;99678.47;5033901;28;20021;-27
2024/02/14 08:11:31;;;;;;;7.10;5.10;;;;;;;10.09;62.30;99674.56;5033802;28;20036;-26
2024/02/14 08:13:57;;;;;;;8.13;5.20;;;;;;;9.91;61.92;99680.44;5033711;28;20033;-27
2024/02/14 08:16:24;;;;;;;10.60;4.75;;;;;;;10.07;60.43;99687.25;5034072;28;20026;-27
2024/02/14 08:18:50;;;;;;;6.72;4.70;;;;;;;9.76;61.64;99685.09;5033492;28;20080;-29
2024/02/14 08:21:16;;;;;;;7.30;5.03;;;;;;;9.61;62.12;99687.09;5033995;28;20029;-28
2024/02/14 08:23:41;;;;;;;6.57;4.53;;;;;;;9.64;62.45;99682.22;5033515;28;20029;-27
2024/02/14 08:26:10;;;;;;;11.35;4.97;;;;;;;9.84;61.47;99689.44;5033240;28;20022;-28
2024/02/14 08:28:37;;;;;;;6.95;4.95;;;;;;;10.30;60.65;99688.69;5033556;28;20021;-30
2024/02/14 08:31:03;;;;;;;8.02;5.18;;;;;;;10.06;61.48;99698.09;5033700;28;20032;-26
2024/02/14 08:33:28;;;;;;;9.85;5.43;;;;;;;9.65;62.53;99706.94;5034159;28;20025;-27
2024/02/14 08:35:57;;;;;;;7.82;5.30;;;;;;;9.58;62.46;99704.28;5033346;28;20516;-28
2024/02/14 08:38:22;;;;;;;8.15;5.50;;;;;;;9.97;61.99;99705.41;5033510;28;20017;-30
2024/02/14 08:40:48;;;;;;;8.30;5.80;;;;;;;10.12;61.50;99707.91;5033537;28;20083;-29
2024/02/14 08:43:13;;;;;;;9.15;6.00;;;;;;;10.35;60.85;99707.56;5032133;28;20117;-28
2024/02/14 08:45:39;;;;;;;13.35;6.28;;;;;;;10.18;61.39;99710.59;5033054;28;20030;-27
2024/02/14 08:48:05;;;;;;;11.77;5.85;;;;;;;10.13;61.91;99712.22;5032900;28;20287;-26
2024/02/14 08:50:30;;;;;;;10.68;5.82;;;;;;;10.67;59.70;99710.47;5032954;28;20028;-27
2024/02/14 08:52:56;;;;;;;10.27;5.65;;;;;;;10.32;60.25;99718.63;5033032;28;20087;-27
2024/02/14 08:55:21;;;;;;;11.32;5.90;;;;;;;10.01;61.40;99711.97;5032991;28;20032;-28
2024/02/14 08:57:49;;;;;;;10.77;6.57;;;;;;;10.30;61.14;99724.16;5033342;28;20420;-31
2024/02/14 09:00:19;;;;;;;14.23;7.75;;;;;;;10.52;60.74;99714.13;5033405;28;20032;-27
2024/02/14 09:02:47;;;;;;;8.70;5.88;;;;;;;10.41;60.58;99720.06;5032665;28;20036;-27
2024/02/14 09:05:14;;;;;;;9.00;6.45;;;;;;;10.43;61.15;99733.97;5032063;28;20021;-26
2024/02/14 09:07:41;;;;;;;10.02;6.20;;;;;;;10.22;62.01;99736.78;5013428;28;20049;-27
2024/02/14 09:10:07;;;;;;;11.70;6.90;;;;;;;10.42;61.52;99732.34;5013054;28;20382;-28
2024/02/14 09:12:33;;;;;;;10.23;6.60;;;;;;;10.59;60.69;99739.94;5013228;28;20037;-26
2024/02/14 09:14:58;;;;;;;9.63;6.20;;;;;;;10.82;60.19;99745.69;5013058;28;20386;-27
2024/02/14 09:17:24;;;;;;;8.80;5.93;;;;;;;10.60;59.81;99747.69;5020958;28;20103;-26
2024/02/14 09:19:49;;;;;;;8.60;6.18;;;;;;;10.61;60.26;99748.53;5032711;28;20053;-28
2024/02/14 09:22:21;;;;;;;8.93;6.05;;;;;;;10.44;61.27;99746.25;5032542;28;20032;-27
2024/02/14 09:24:46;;;;;;;10.18;6.70;;;;;;;11.11;59.11;99747.09;5032850;28;20026;-28
2024/02/14 09:27:12;;;;;;;11.82;7.05;;;;;;;10.46;61.13;99752.19;5032411;28;20025;-28
2024/02/14 09:29:38;;;;;;;11.57;6.10;;;;;;;10.06;62.11;99751.25;5032487;28;20025;-27
2024/02/14 09:32:03;;;;;;;9.52;6.63;;;;;;;10.12;62.62;99745.13;5032128;28;20562;-29
2024/02/14 09:34:29;;;;;;;10.40;6.57;;;;;;;10.20;63.46;99746.78;5032364;28;20029;-28
2024/02/14 09:36:56;;;;;;;9.60;7.05;;;;;;;10.10;63.88;99748.00;5032186;28;20032;-29
2024/02/14 09:39:22;;;;;;;9.82;6.68;;;;;;;9.84;65.55;99738.06;5032299;28;20424;-26
2024/02/14 09:41:55;;;;;;;10.48;7.10;;;;;;;9.69;66.56;99740.91;5032278;28;20637;-29
2024/02/14 09:44:21;;;;;;;10.77;6.88;;;;;;;10.00;65.78;99738.78;5035650;28;20083;-26
2024/02/14 09:46:48;;;;;;;11.82;7.05;;;;;;;9.57;67.66;99739.81;5037069;28;20100;-26
2024/02/14 09:49:16;;;;;;;12.98;7.47;;;;;;;9.97;66.75;99734.66;5040007;28;20025;-28
2024/02/14 09:51:44;;;;;;;11.15;7.38;;;;;;;9.73;68.23;99742.16;5039141;28;20103;-28
2024/02/14 09:54:11;;;;;;;10.60;7.47;;;;;;;10.01;66.35;99743.88;5040688;28;20021;-29
2024/02/14 09:56:36;;;;;;;9.13;6.63;;;;;;;10.18;66.71;99729.22;5035367;28;20017;-28
2024/02/14 09:59:02;;;;;;;10.43;7.18;;;;;;;10.20;66.30;99731.66;5038854;28;20028;-28
2024/02/14 10:01:28;;;;;;;11.40;7.40;;;;;;;10.08;67.21;99739.41;5040601;28;20016;-28
2024/02/14 10:03:54;;;;;;;10.60;7.63;;;;;;;10.54;66.15;99741.34;5034764;28;20128;-27
2024/02/14 10:06:20;;;;;;;13.23;8.18;;;;;;;10.64;66.03;99734.81;5031818;28;20359;-27
2024/02/14 10:08:47;;;;;;;11.80;7.80;;;;;;;10.34;66.76;99735.22;5038509;28;20519;-29
2024/02/14 10:11:14;;;;;;;12.90;7.93;;;;;;;10.06;66.88;99733.47;5039927;28;20485;-27
2024/02/14 10:13:40;;;;;;;13.60;8.68;;;;;;;10.64;66.32;99751.63;5041745;28;20033;-26
2024/02/14 10:16:08;;;;;;;12.52;8.20;;;;;;;10.52;66.57;99751.38;5040613;28;20445;-28
2024/02/14 10:18:33;;;;;;;13.68;8.60;;;;;;;10.16;67.21;99744.53;5038378;28;20558;-28
2024/02/14 10:20:59;;;;;;;16.40;8.65;;;;;;;10.37;65.67;99748.91;5037107;28;20033;-27
2024/02/14 10:23:27;;;;;;;14.70;8.93;;;;;;;10.49;63.78;99746.50;5036931;28;20037;-27
2024/02/14 10:25:55;;;;;;;12.02;7.43;;;;;;;10.56;63.40;99741.97;5031813;28;20384;-28
2024/02/14 10:28:21;;;;;;;9.90;7.25;;;;;;;10.67;62.40;99745.88;5032541;28;20029;-27
2024/02/14 10:30:49;;;;;;;13.77;7.15;;;;;;;10.05;64.25;99733.66;5032086;28;20034;-29
2024/02/14 10:33:15;;;;;;;9.63;6.68;;;;;;;10.30;64.07;99732.13;5032180;28;20034;-27
2024/02/14 10:35:42;;;;;;;13.35;7.38;;;;;;;10.87;61.87;99740.56;5031762;28;20026;-29
2024/02/14 10:38:09;;;;;;;10.77;6.75;;;;;;;10.76;62.56;99738.53;5031468;28;20030;-27
2024/02/14 10:40:35;;;;;;;9.70;6.40;;;;;;;10.81;61.94;99738.72;5031615;28;20425;-27
2024/02/14 10:43:01;;;;;;;10.43;6.93;;;;;;;10.71;61.56;99727.66;5031348;28;20052;-28
2024/02/14 10:45:27;;;;;;;9.45;6.90;;;;;;;10.54;62.37;99724.56;5031104;28;20478;-27
2024/02/14 10:47:57;;;;;;;10.27;6.40;;;;;;;11.00;60.84;99721.09;5063484;28;20026;-27
2024/02/14 10:50:24;;;;;;;7.70;5.75;;;;;;;10.60;61.11;99717.63;5031529;28;20033;-29
2024/02/14 10:52:53;;;;;;;8.88;6.05;;;;;;;10.95;59.26;99712.91;5031697;28;20025;-28
2024/02/14 10:55:26;;;;;;;8.10;5.75;;;;;;;10.87;59.02;99718.44;5030987;28;20104;-29
2024/02/14 10:57:54;;;;;;;9.27;5.85;;;;;;;10.67;60.47;99721.13;5031280;28;20486;-30
2024/02/14 11:00:20;;;;;;;9.70;6.65;;;;;;;10.81;59.88;99708.63;5030983;28;20499;-28
2024/02/14 11:02:47;;;;;;;9.48;6.00;;;;;;;10.60;60.75;99691.00;5031412;28;20036;-30
2024/02/14 11:05:16;;;;;;;9.07;5.85;;;;;;;10.45;61.00;99723.97;5031207;28;20106;-27
2024/02/14 11:07:48;;;;;;;7.22;5.60;;;;;;;10.62;61.23;99721.72;5031241;28;20025;-29
2024/02/14 11:10:17;;;;;;;9.15;5.95;;;;;;;11.53;59.32;99706.81;5031298;28;20041;-30
2024/02/14 11:12:42;;;;;;;8.20;5.65;;;;;;;11.29;59.24;99716.31;5031066;28;20495;-28
2024/02/14 11:15:20;;;;;;;8.63;5.45;;;;;;;11.08;59.85;99714.72;5030926;28;20110;-29
2024/02/14 11:17:46;;;;;;;8.18;6.00;;;;;;;11.33;60.57;99718.38;5031075;28;20049;-28
2024/02/14 11:20:32;;;;;;;9.95;5.80;;;;;;;11.73;58.64;99715.56;5031444;28;20056;-27
2024/02/14 11:23:03;;;;;;;9.23;5.63;;;;;;;12.02;57.89;99713.41;5030721;28;20044;-31
2024/02/14 11:25:34;;;;;;;7.63;5.68;;;;;;;12.14;57.32;99718.88;5033891;28;20076;-28
2024/02/14 11:28:02;;;;;;;6.78;5.20;;;;;;;12.26;55.93;99719.00;5034694;28;20108;-28
2024/02/14 11:30:37;;;;;;;12.45;5.57;;;;;;;12.85;55.91;99711.59;5034702;28;20527;-28
2024/02/14 11:33:23;;;;;;;9.57;5.38;;;;;;;13.42;53.24;99719.50;5034700;28;20112;-28
2024/02/14 11:35:55;;;;;;;8.15;5.95;;;;;;;13.19;53.78;99720.13;5034964;28;20101;-28